• Join FlightAware (Why Join?)
  • Login
  • US Flag 
08:48PM EDT


 

Airport Tracker/Info


-or-


 

Live Flight TrackerFlight Track Log ✈ SKQ45 ✈ 24-Jul-2013 ✈ KOSU - KBUY

Flight Track Log - Related Links

Times and Time Zones

All times are in EDT time to prevent confusion due to time zone crossing. See the SKQ45 flight status page for this flight to view local times or setup timezone preferences in your user account.

Time Position Orientation Groundspeed Altitude Reporting Facility
EDT Latitude Longitude Course Direction KTS MPH feet Rate Location/Type
02:20AM 40.0706 -83.1178 259° West 144 166 2,900  Level Indianapolis Center
02:21AM 40.0353 -83.1119 173° South 146 168 4,800 1,380 Climbing Indianapolis Center
02:22AM 39.9800 -83.0728 151° Southeast 180 207 6,100 1,080 Climbing Indianapolis Center
02:23AM 39.9206 -83.0586 170° South 210 242 7,400 1,380 Climbing Indianapolis Center
02:24AM 39.8742 -83.0083 140° Southeast 214 246 9,000 1,380 Climbing Indianapolis Center
02:25AM 39.8294 -82.9564 138° Southeast 213 245 10,300 1,260 Climbing Indianapolis Center
02:26AM 39.8117 -82.8797 107° East 225 259 11,600 1,260 Climbing Indianapolis Center
02:27AM 39.7989 -82.8025 102° East 217 250 12,900 1,200 Climbing Indianapolis Center
02:28AM 39.7864 -82.7228 102° East 222 255 14,100 1,200 Climbing Indianapolis Center
02:29AM 39.7733 -82.6431 102° East 224 258 15,400 1,260 Climbing Indianapolis Center
02:30AM 39.7578 -82.5667 105° East 219 252 16,700 1,140 Climbing Indianapolis Center
02:31AM 39.7369 -82.4919 110° East 219 252 17,700 900 Climbing Indianapolis Center
02:32AM 39.7147 -82.4322 116° Southeast 219 252 18,600 840 Climbing Indianapolis Center
02:33AM 39.6911 -82.3558 112° Southeast 225 259 19,400 780 Climbing Indianapolis Center
02:34AM 39.6633 -82.2731 114° Southeast 247 284 20,200 840 Climbing Indianapolis Center
02:35AM 39.6344 -82.1897 114° Southeast 250 288 21,100 840 Climbing Indianapolis Center
02:36AM 39.6083 -82.1083 113° Southeast 254 292 21,900 840 Climbing Indianapolis Center
02:37AM 39.5808 -82.0261 113° Southeast 250 288 22,800 900 Climbing Indianapolis Center
02:38AM 39.5533 -81.9444 114° Southeast 248 285 23,700 900 Climbing Indianapolis Center
02:39AM 39.5261 -81.8636 114° Southeast 245 282 24,600 600 Climbing Indianapolis Center
02:40AM 39.4981 -81.7811 114° Southeast 250 288 25,000 180 Climbing Indianapolis Center
02:41AM 39.4675 -81.6911 114° Southeast 270 311 25,000  Level Indianapolis Center
02:42AM 39.4353 -81.5961 114° Southeast 286 329 25,000  Level Indianapolis Center
02:43AM 39.4014 -81.4983 114° Southeast 295 339 25,000  Level Indianapolis Center
02:44AM 39.3689 -81.4003 113° Southeast 296 341 25,000  Level Indianapolis Center
02:45AM 39.3347 -81.3008 114° Southeast 301 346 25,000  Level Indianapolis Center
02:46AM 39.3014 -81.2022 114° Southeast 300 345 25,000  Level Indianapolis Center
02:47AM 39.2664 -81.1022 114° Southeast 303 349 25,000  Level Indianapolis Center
02:48AM 39.2325 -81.0014 113° Southeast 305 351 25,000  Level Indianapolis Center
02:49AM 39.1972 -80.9017 115° Southeast 305 351 25,000  Level Indianapolis Center
02:50AM 39.1625 -80.8025 114° Southeast 304 350 25,000  Level Indianapolis Center
02:51AM 39.1300 -80.7058 113° Southeast 295 339 25,000  Level Indianapolis Center
02:52AM 39.0914 -80.6156 119° Southeast 289 333 25,000  Level Indianapolis Center
02:53AM 39.0417 -80.5414 131° Southeast 275 316 25,000  Level Indianapolis Center
02:54AM 38.9942 -80.4650 129° Southeast 273 314 25,000  Level Indianapolis Center
02:55AM 38.9275 -80.4403 164° South 250 288 25,000  Level Indianapolis Center
02:56AM 38.8592 -80.4242 170° South 249 287 25,000  Level Indianapolis Center
02:57AM 38.7919 -80.4014 165° South 250 288 25,000  Level Indianapolis Center
02:58AM 38.7264 -80.3769 164° South 246 283 25,000  Level Indianapolis Center
02:59AM 38.6611 -80.3544 165° South 244 281 25,000  Level Indianapolis Center
03:00AM 38.5944 -80.3386 169° South 247 284 25,000  Level Washington Center
03:01AM 38.5267 -80.3131 164° South 252 290 25,000  Level Washington Center
03:02AM 38.4525 -80.2872 165° South 257 296 25,000  Level Washington Center
03:03AM 38.3867 -80.2644 165° South 257 296 25,000  Level Washington Center
03:04AM 38.3189 -80.2417 165° South 257 296 25,000  Level Washington Center
03:05AM 38.2550 -80.2192 165° South 251 289 25,000  Level Washington Center
03:06AM 38.1975 -80.1997 165° South 251 289 25,000  Level Washington Center
03:07AM 38.1314 -80.1772 165° South 251 289 25,000  Level Washington Center
03:08AM 38.0636 -80.1519 164° South 251 289 25,000  Level Washington Center
03:09AM 37.9914 -80.1292 166° South 251 289 25,000  Level Washington Center
03:10AM 37.9278 -80.1069 165° South 251 289 25,000  Level Washington Center
03:11AM 37.8575 -80.0842 166° South 251 289 25,000  Level Washington Center
03:12AM 37.7897 -80.0617 165° South 251 289 25,000  Level Washington Center
03:13AM 37.7278 -80.0397 164° South 258 297 25,000  Level Washington Center
03:14AM 37.6578 -80.0147 164° South 258 297 25,000 -300 Level Washington Center
03:15AM 37.5897 -79.9922 165° South 258 297 24,500 -900 Descending Washington Center
03:16AM 37.5033 -79.9639 165° South 277 319 23,300 -1,200 Descending Washington Center
03:17AM 37.4208 -79.9356 165° South 293 337 22,200 -1,080 Descending Washington Center
03:18AM 37.3383 -79.9072 165° South 305 351 21,200 -1,080 Descending Washington Center
03:19AM 37.2664 -79.8797 163° South 305 351 20,100 -1,080 Descending Washington Center
03:20AM 37.1819 -79.8542 166° South 305 351 19,100 -1,140 Descending Washington Center
03:21AM 37.1014 -79.8261 164° South 305 351 17,900 -1,200 Descending Washington Center
03:22AM 37.0128 -79.7981 166° South 305 351 16,700 -1,200 Descending Washington Center
03:24AM 36.9054 -79.7623 165° South  Level FlightAware Approximate
03:31AM 36.4374 -79.5993 161° South  Level FlightAware Approximate
03:32AM 36.3701 -79.5833 180° South  Level FlightAware Approximate
03:33AM 36.3024 -79.5675 165° South  Level FlightAware Approximate
03:34AM 36.2398 -79.5333 180° South  Level FlightAware Approximate
03:35AM 36.1751 -79.5167 180° South  Level FlightAware Approximate
03:36AM 36.1086 -79.4934 162° South  Level FlightAware Approximate
03:37AM 36.0485 -79.4749 165° South  Level Estimated
03:38AM 36.0485 -79.4749 165° South  Level Estimated